createdAt,value
2022-12-07T00:09:12.052Z,3.52
2022-12-07T00:19:16.387Z,3.31
2022-12-07T00:29:22.881Z,3.13
2022-12-07T00:39:25.821Z,3.16
2022-12-07T00:49:30.198Z,3.05
2022-12-07T00:59:33.163Z,2.94
2022-12-07T01:09:37.425Z,2.63
2022-12-07T01:19:40.385Z,2.51
2022-12-07T01:29:44.696Z,2.77
2022-12-07T01:39:50.995Z,3.11
2022-12-07T01:49:55.298Z,3.25
2022-12-07T01:59:59.960Z,3.24
2022-12-07T02:10:20.009Z,3.15
2022-12-07T02:20:32.200Z,3.12
2022-12-07T02:30:42.703Z,3.01
2022-12-07T02:40:50.231Z,2.90
2022-12-07T02:50:55.828Z,2.93
2022-12-07T03:01:11.124Z,3.05
2022-12-07T03:11:21.890Z,3.06
2022-12-07T03:21:28.743Z,2.84
2022-12-07T03:31:36.044Z,2.72
2022-12-07T03:41:44.938Z,2.76
2022-12-07T03:51:57.384Z,2.84
2022-12-07T04:02:07.493Z,2.92
2022-12-07T04:12:11.859Z,3.07
2022-12-07T04:22:17.095Z,3.21
2022-12-07T04:32:21.417Z,3.35
2022-12-07T04:42:24.400Z,3.45
2022-12-07T04:52:28.710Z,3.59
2022-12-07T05:02:31.657Z,3.63
2022-12-07T05:12:36.048Z,3.64
2022-12-07T05:22:38.964Z,3.66
2022-12-07T05:32:43.331Z,3.61
2022-12-07T05:42:46.568Z,3.37
2022-12-07T05:52:50.833Z,3.06
2022-12-07T06:02:53.820Z,2.68
2022-12-07T06:12:58.183Z,2.41
2022-12-07T06:23:01.103Z,2.18
2022-12-07T06:33:05.495Z,2.16
2022-12-07T06:43:09.583Z,2.36
2022-12-07T06:53:14.010Z,2.58
2022-12-07T07:03:16.999Z,2.61
2022-12-07T07:13:21.381Z,2.58
2022-12-07T07:23:24.362Z,2.71
2022-12-07T07:33:28.663Z,2.80
2022-12-07T07:43:31.665Z,2.87
2022-12-07T07:53:35.959Z,2.79
2022-12-07T08:03:41.723Z,2.78
2022-12-07T08:13:47.668Z,2.60
2022-12-07T08:23:50.680Z,2.53
2022-12-07T08:33:55.005Z,2.72
2022-12-07T08:43:57.930Z,2.99
2022-12-07T08:54:06.160Z,3.41
2022-12-07T09:04:09.230Z,3.70
2022-12-07T09:14:13.703Z,3.95
2022-12-07T09:24:16.723Z,4.13
2022-12-07T09:34:21.361Z,3.97
2022-12-07T09:44:27.054Z,3.76
2022-12-07T09:54:32.693Z,3.77
2022-12-07T10:04:35.673Z,4.00
2022-12-07T10:25:10.737Z,4.84
2022-12-07T10:35:27.460Z,4.84
2022-12-07T10:45:30.558Z,4.80
2022-12-07T10:55:48.419Z,5.21
2022-12-07T11:05:56.153Z,5.61
2022-12-07T11:16:20.628Z,5.85
2022-12-07T11:26:36.723Z,6.15
2022-12-07T11:36:43.964Z,6.47
2022-12-07T11:46:52.230Z,6.66
2022-12-07T11:57:02.072Z,6.73
2022-12-07T12:17:56.922Z,6.38
2022-12-07T12:28:01.549Z,6.63
2022-12-07T12:38:34.422Z,6.75
2022-12-07T12:48:39.537Z,6.55
2022-12-07T12:58:47.027Z,6.40
2022-12-07T13:08:50.835Z,6.26
2022-12-07T13:18:55.712Z,6.10
2022-12-07T13:29:10.396Z,6.28
2022-12-07T13:39:21.595Z,6.69
2022-12-07T13:49:27.443Z,6.64
2022-12-07T13:59:34.677Z,6.59
2022-12-07T14:09:38.393Z,6.48
2022-12-07T14:19:52.593Z,6.51
2022-12-07T14:30:00.586Z,6.28
2022-12-07T14:40:06.692Z,6.01
2022-12-07T14:50:13.837Z,5.74
2022-12-07T15:00:20.646Z,5.66
2022-12-07T15:10:30.544Z,5.55
2022-12-07T15:20:35.406Z,5.44
2022-12-07T15:30:39.376Z,5.30
2022-12-07T15:40:43.774Z,5.18
2022-12-07T15:50:46.723Z,5.22
2022-12-07T16:00:51.120Z,5.12
2022-12-07T16:10:54.072Z,5.00
2022-12-07T16:20:58.525Z,4.88
2022-12-07T16:31:10.887Z,4.86
2022-12-07T16:41:15.324Z,4.88
2022-12-07T16:51:18.291Z,4.91
2022-12-07T17:01:23.887Z,4.91
2022-12-07T17:11:29.239Z,4.88
2022-12-07T17:21:33.956Z,4.83
2022-12-07T17:31:37.637Z,4.73
2022-12-07T17:41:59.305Z,4.68
2022-12-07T17:52:19.647Z,4.68
2022-12-07T18:02:24.099Z,4.69
2022-12-07T18:12:27.124Z,4.73
2022-12-07T18:22:31.639Z,4.70
2022-12-07T18:32:34.624Z,4.62
2022-12-07T18:42:38.926Z,4.47
2022-12-07T18:52:42.058Z,4.31
2022-12-07T19:02:46.494Z,4.19
2022-12-07T19:12:49.889Z,4.17
2022-12-07T19:22:54.563Z,4.12
2022-12-07T19:32:57.527Z,4.05
2022-12-07T19:43:01.862Z,4.07
2022-12-07T19:53:04.811Z,4.12
2022-12-07T20:03:09.123Z,4.12
2022-12-07T20:13:32.118Z,4.19
2022-12-07T20:23:36.504Z,4.19
2022-12-07T20:33:39.483Z,4.23
2022-12-07T20:43:44.543Z,4.25
2022-12-07T20:53:47.493Z,4.28
2022-12-07T21:03:55.062Z,4.26
2022-12-07T21:13:58.036Z,4.18
2022-12-07T21:24:03.723Z,4.06
2022-12-07T21:34:07.467Z,4.09
2022-12-07T21:44:11.875Z,4.10
2022-12-07T21:54:15.012Z,4.09
2022-12-07T22:04:21.258Z,4.10
2022-12-07T22:14:41.777Z,4.10
2022-12-07T22:24:48.137Z,4.04
2022-12-07T22:34:51.148Z,4.03
2022-12-07T22:44:55.497Z,4.01
2022-12-07T22:54:58.401Z,3.96
2022-12-07T23:05:02.985Z,3.95
2022-12-07T23:15:06.941Z,3.88
2022-12-07T23:25:11.501Z,3.77
2022-12-07T23:35:14.460Z,3.69
2022-12-07T23:45:18.901Z,3.67
2022-12-07T23:55:22.679Z,3.64
